createdAt,value
2018-12-16T00:00:00.057Z,93286.30
2018-12-16T00:02:27.460Z,93278.41
2018-12-16T00:04:54.792Z,93276.89
2018-12-16T00:07:36.384Z,93269.77
2018-12-16T00:10:04.165Z,93272.23
2018-12-16T00:12:31.582Z,93267.56
2018-12-16T00:14:58.961Z,93263.80
2018-12-16T00:17:32.077Z,93270.94
2018-12-16T00:19:59.488Z,93262.97
2018-12-16T00:22:30.009Z,93254.63
2018-12-16T00:24:56.773Z,93259.14
2018-12-16T00:27:29.951Z,93254.21
2018-12-16T00:29:57.325Z,93248.44
2018-12-16T00:32:24.690Z,93248.86
2018-12-16T00:34:52.072Z,93249.24
2018-12-16T00:37:33.790Z,93237.02
2018-12-16T00:40:01.173Z,93234.19
2018-12-16T00:42:28.516Z,93230.46
2018-12-16T00:44:55.909Z,93229.17
2018-12-16T00:47:23.295Z,93231.56
2018-12-16T00:49:50.664Z,93229.14
2018-12-16T00:52:18.030Z,93219.09
2018-12-16T00:54:45.452Z,93225.04
2018-12-16T00:57:17.755Z,93226.29
2018-12-16T00:59:45.141Z,93227.99
2018-12-16T01:02:17.990Z,93235.39
2018-12-16T01:04:45.404Z,93227.09
2018-12-16T01:07:16.340Z,93227.99
2018-12-16T01:09:43.734Z,93227.50
2018-12-16T01:12:11.099Z,93228.69
2018-12-16T01:14:38.467Z,93227.39
2018-12-16T01:17:05.899Z,93224.89
2018-12-16T01:19:33.260Z,93221.47
2018-12-16T01:22:00.693Z,93221.85
2018-12-16T01:24:28.095Z,93220.19
2018-12-16T01:26:55.491Z,93227.66
2018-12-16T01:29:22.904Z,93225.61
2018-12-16T01:31:50.337Z,93210.93
2018-12-16T01:34:17.699Z,93215.90
2018-12-16T01:36:45.105Z,93209.64
2018-12-16T01:39:12.494Z,93209.18
2018-12-16T01:41:39.890Z,93208.05
2018-12-16T01:44:07.276Z,93211.01
2018-12-16T01:46:34.674Z,93210.59
2018-12-16T01:49:02.059Z,93193.83
2018-12-16T01:51:29.508Z,93198.80
2018-12-16T01:53:56.919Z,93191.67
2018-12-16T01:56:24.321Z,93195.34
2018-12-16T01:58:51.683Z,93187.91
2018-12-16T02:01:19.063Z,93185.52
2018-12-16T02:03:46.420Z,93177.56
2018-12-16T02:06:13.863Z,93180.03
2018-12-16T02:08:41.270Z,93174.19
2018-12-16T02:11:08.624Z,93169.64
2018-12-16T02:13:36.020Z,93167.66
2018-12-16T02:16:03.501Z,93162.63
2018-12-16T02:18:30.904Z,93153.41
2018-12-16T02:20:58.279Z,93162.59
2018-12-16T02:23:25.636Z,93158.00
2018-12-16T02:26:02.406Z,93151.33
2018-12-16T02:28:29.781Z,93154.25
2018-12-16T02:30:57.160Z,93147.09
2018-12-16T02:33:24.556Z,93145.94
2018-12-16T02:38:44.742Z,93153.83
2018-12-16T02:41:12.196Z,93144.66
2018-12-16T02:43:39.640Z,93145.98
2018-12-16T02:46:07.015Z,93140.63
2018-12-16T02:48:34.516Z,93141.08
2018-12-16T02:51:01.871Z,93139.89
2018-12-16T02:53:29.290Z,93137.00
2018-12-16T02:55:56.670Z,93127.41
2018-12-16T02:58:24.081Z,93126.24
2018-12-16T03:00:51.591Z,93117.48
2018-12-16T03:03:18.942Z,93114.11
2018-12-16T03:05:46.351Z,93114.08
2018-12-16T03:08:13.808Z,93114.50
2018-12-16T03:10:41.179Z,93108.63
2018-12-16T03:13:08.600Z,93111.13
2018-12-16T03:15:36.130Z,93105.26
2018-12-16T03:18:03.582Z,93103.20
2018-12-16T03:20:31.097Z,93100.28
2018-12-16T03:22:58.504Z,93100.70
2018-12-16T03:25:25.884Z,93097.42
2018-12-16T03:27:53.274Z,93096.97
2018-12-16T03:30:23.257Z,93095.33
2018-12-16T03:32:50.067Z,93091.13
2018-12-16T03:35:17.452Z,93087.41
2018-12-16T03:37:44.813Z,93080.28
2018-12-16T03:40:12.213Z,93077.78
2018-12-16T03:42:39.564Z,93083.95
2018-12-16T03:45:07.010Z,93073.10
2018-12-16T03:47:34.477Z,93075.25
2018-12-16T03:50:01.879Z,93063.62
2018-12-16T03:52:29.272Z,93057.41
2018-12-16T03:54:56.671Z,93059.55
2018-12-16T03:57:23.992Z,93053.34
2018-12-16T03:59:51.380Z,93056.66
2018-12-16T04:02:18.782Z,93057.86
2018-12-16T04:04:46.123Z,93055.30
2018-12-16T04:07:13.533Z,93051.07
2018-12-16T04:09:40.865Z,93048.93
2018-12-16T04:12:08.279Z,93037.66
2018-12-16T04:14:35.604Z,93033.47
2018-12-16T04:17:03.011Z,93026.37
2018-12-16T04:19:30.391Z,93021.06
2018-12-16T04:21:57.817Z,93009.40
2018-12-16T04:24:25.197Z,93016.91
2018-12-16T04:26:52.604Z,93013.64
2018-12-16T04:29:19.922Z,93008.59
2018-12-16T04:31:47.297Z,93004.41
2018-12-16T04:34:14.657Z,93006.86
2018-12-16T04:36:42.034Z,92996.46
2018-12-16T04:39:09.385Z,93002.77
2018-12-16T04:41:36.742Z,93000.61
2018-12-16T04:44:09.857Z,92988.95
2018-12-16T04:46:39.216Z,92986.35
2018-12-16T04:49:06.723Z,92981.70
2018-12-16T04:51:34.247Z,92978.40
2018-12-16T04:54:01.585Z,92970.50
2018-12-16T04:56:32.240Z,92967.58
2018-12-16T04:58:59.595Z,92974.28
2018-12-16T05:01:32.607Z,92969.28
2018-12-16T05:04:00.011Z,92961.86
2018-12-16T05:06:27.486Z,92960.64
2018-12-16T05:08:54.862Z,92963.53
2018-12-16T05:11:22.201Z,92969.75
2018-12-16T05:13:49.570Z,92962.24
2018-12-16T05:16:36.733Z,92967.66
2018-12-16T05:19:10.713Z,92960.59
2018-12-16T05:21:38.197Z,92962.66
2018-12-16T05:24:09.371Z,92963.47
2018-12-16T05:26:40.182Z,92962.24
2018-12-16T05:29:07.547Z,92952.23
2018-12-16T05:31:34.909Z,92958.84
2018-12-16T05:34:02.271Z,92954.69
2018-12-16T05:36:29.642Z,92960.53
2018-12-16T05:38:57.048Z,92968.92
2018-12-16T05:41:24.441Z,92953.92
2018-12-16T05:43:51.853Z,92948.09
2018-12-16T05:46:32.813Z,92948.53
2018-12-16T05:49:00.185Z,92933.92
2018-12-16T05:51:33.222Z,92936.83
2018-12-16T05:54:06.337Z,92935.18
2018-12-16T05:56:38.847Z,92935.17
2018-12-16T05:59:06.254Z,92948.55
2018-12-16T06:01:34.701Z,92941.00
2018-12-16T06:04:03.717Z,92948.09
2018-12-16T06:06:38.135Z,92943.51
2018-12-16T06:09:05.689Z,92953.15
2018-12-16T06:11:33.107Z,92951.88
2018-12-16T06:14:00.461Z,92945.61
2018-12-16T06:16:27.838Z,92946.81
2018-12-16T06:18:56.067Z,92947.28
2018-12-16T06:21:23.456Z,92941.89
2018-12-16T06:23:55.547Z,92937.27
2018-12-16T06:26:20.251Z,92941.85
2018-12-16T06:28:47.666Z,92951.94
2018-12-16T06:31:15.021Z,92954.83
2018-12-16T06:33:42.390Z,92956.56
2018-12-16T06:36:09.857Z,92956.58
2018-12-16T06:38:37.290Z,92955.72
2018-12-16T06:41:04.696Z,92965.74
2018-12-16T06:43:32.137Z,92965.73
2018-12-16T06:45:59.545Z,92957.41
2018-12-16T06:48:26.937Z,92962.06
2018-12-16T06:50:54.285Z,92954.95
2018-12-16T06:53:21.662Z,92963.77
2018-12-16T06:55:49.029Z,92959.20
2018-12-16T06:58:16.403Z,92959.59
2018-12-16T07:00:43.793Z,92952.91
2018-12-16T07:03:11.172Z,92948.33
2018-12-16T07:05:38.516Z,92953.82
2018-12-16T07:08:05.885Z,92946.30
2018-12-16T07:10:33.303Z,92949.22
2018-12-16T07:13:00.667Z,92956.78
2018-12-16T07:15:28.035Z,92956.01
2018-12-16T07:17:56.385Z,92956.44
2018-12-16T07:20:23.786Z,92962.73
2018-12-16T07:22:51.161Z,92968.59
2018-12-16T07:25:18.552Z,92972.77
2018-12-16T07:27:46.877Z,92970.67
2018-12-16T07:30:14.255Z,92966.95
2018-12-16T07:34:06.130Z,92966.50
2018-12-16T07:36:33.533Z,92966.94
2018-12-16T07:39:00.905Z,92970.69
2018-12-16T07:41:28.301Z,92962.77
2018-12-16T07:43:55.770Z,92965.70
2018-12-16T07:46:31.488Z,92966.55
2018-12-16T07:48:59.010Z,92975.75
2018-12-16T07:51:26.560Z,92971.99
2018-12-16T07:53:54.074Z,92980.77
2018-12-16T07:56:37.697Z,92990.81
2018-12-16T07:59:05.071Z,92997.50
2018-12-16T08:01:32.457Z,92997.12
2018-12-16T08:03:59.949Z,92995.86
2018-12-16T08:06:27.440Z,92997.13
2018-12-16T08:08:54.822Z,92995.05
2018-12-16T08:11:22.230Z,93004.67
2018-12-16T08:13:49.558Z,93005.10
2018-12-16T08:16:16.970Z,92991.30
2018-12-16T08:18:44.314Z,92992.16
2018-12-16T08:21:11.721Z,92996.33
2018-12-16T08:23:44.494Z,92988.80
2018-12-16T08:26:11.930Z,92988.81
2018-12-16T08:28:39.375Z,93000.95
2018-12-16T08:31:06.769Z,93000.53
2018-12-16T08:33:34.154Z,93008.05
2018-12-16T08:36:01.498Z,93002.18
2018-12-16T08:38:28.988Z,92993.82
2018-12-16T08:40:56.374Z,92997.98
2018-12-16T08:43:23.757Z,93003.86
2018-12-16T08:45:51.175Z,93000.91
2018-12-16T08:48:18.621Z,93002.14
2018-12-16T08:50:46.032Z,92993.76
2018-12-16T08:53:13.462Z,92993.34
2018-12-16T08:55:40.864Z,93000.47
2018-12-16T08:58:08.287Z,92998.37
2018-12-16T09:00:35.624Z,92999.18
2018-12-16T09:03:03.075Z,92994.95
2018-12-16T09:05:30.451Z,92995.35
2018-12-16T09:07:57.874Z,92997.80
2018-12-16T09:10:25.347Z,93001.06
2018-12-16T09:12:52.732Z,93012.28
2018-12-16T09:15:20.146Z,93007.61
2018-12-16T09:17:47.542Z,93013.86
2018-12-16T09:20:15.002Z,93013.47
2018-12-16T09:22:42.416Z,93014.73
2018-12-16T09:25:09.846Z,93011.34
2018-12-16T09:27:37.207Z,93012.25
2018-12-16T09:30:06.022Z,93016.86
2018-12-16T09:32:33.391Z,93021.93
2018-12-16T09:35:00.822Z,93018.58
2018-12-16T09:37:28.183Z,93025.67
2018-12-16T09:39:55.608Z,93022.72
2018-12-16T09:42:22.991Z,93020.95
2018-12-16T09:44:50.543Z,93015.44
2018-12-16T09:47:18.228Z,93017.84
2018-12-16T09:49:45.672Z,93015.95
2018-12-16T09:52:13.045Z,93011.60
2018-12-16T09:54:44.226Z,93009.69
2018-12-16T09:57:09.853Z,93002.47
2018-12-16T09:59:37.294Z,93014.14
2018-12-16T10:02:04.762Z,93011.61
2018-12-16T10:04:32.158Z,93009.92
2018-12-16T10:06:59.618Z,93012.04
2018-12-16T10:09:26.990Z,93009.14
2018-12-16T10:11:54.458Z,93016.26
2018-12-16T10:14:21.823Z,93015.42
2018-12-16T10:16:49.298Z,93017.18
2018-12-16T10:19:16.702Z,93012.19
2018-12-16T10:21:44.163Z,93012.67
2018-12-16T10:24:11.534Z,93014.77
2018-12-16T10:26:39.279Z,93010.50
2018-12-16T10:29:06.741Z,93017.69
2018-12-16T10:31:34.129Z,93015.20
2018-12-16T10:34:01.532Z,93008.43
2018-12-16T10:36:29.015Z,93008.46
2018-12-16T10:38:56.433Z,93010.95
2018-12-16T10:41:23.816Z,93009.12
2018-12-16T10:43:51.179Z,93015.52
2018-12-16T10:46:18.587Z,93022.45
2018-12-16T10:48:45.968Z,93027.87
2018-12-16T10:51:13.332Z,93024.94
2018-12-16T10:53:40.715Z,93025.63
2018-12-16T10:56:08.079Z,93017.15
2018-12-16T10:58:35.467Z,93017.97
2018-12-16T11:01:08.471Z,93021.30
2018-12-16T11:03:36.806Z,93014.79
2018-12-16T11:06:04.229Z,93016.09
2018-12-16T11:08:31.872Z,93022.21
2018-12-16T11:10:59.199Z,93028.28
2018-12-16T11:13:26.672Z,93019.61
2018-12-16T11:15:54.183Z,93030.03
2018-12-16T11:18:21.538Z,93034.09
2018-12-16T11:20:48.937Z,93035.25
2018-12-16T11:23:16.293Z,93033.45
2018-12-16T11:25:48.128Z,93020.63
2018-12-16T11:28:15.490Z,93028.35
2018-12-16T11:30:42.927Z,93030.14
2018-12-16T11:33:10.270Z,93022.77
2018-12-16T11:35:37.689Z,93029.38
2018-12-16T11:38:05.072Z,93021.45
2018-12-16T11:40:41.885Z,93014.62
2018-12-16T11:43:09.244Z,93026.22
2018-12-16T11:45:36.792Z,93026.67
2018-12-16T11:48:04.225Z,93025.98
2018-12-16T11:50:31.604Z,93018.81
2018-12-16T11:52:58.986Z,93022.73
2018-12-16T11:55:26.474Z,93021.39
2018-12-16T11:57:53.848Z,93013.56
2018-12-16T12:00:21.243Z,93021.19
2018-12-16T12:02:48.611Z,93013.08
2018-12-16T12:05:16.104Z,93019.75
2018-12-16T12:07:43.509Z,93016.23
2018-12-16T12:10:10.902Z,93012.12
2018-12-16T12:12:38.301Z,93022.64
2018-12-16T12:15:05.790Z,93008.09
2018-12-16T12:17:33.169Z,93013.84
2018-12-16T12:20:00.565Z,93015.74
2018-12-16T12:22:27.997Z,93016.16
2018-12-16T12:24:55.381Z,93014.16
2018-12-16T12:27:22.837Z,93024.11
2018-12-16T12:29:50.204Z,93020.26
2018-12-16T12:32:17.650Z,93026.97
2018-12-16T12:34:45.067Z,93025.53
2018-12-16T12:37:12.508Z,93023.23
2018-12-16T12:39:39.884Z,93035.87
2018-12-16T12:42:07.304Z,93036.05
2018-12-16T12:44:34.726Z,93034.06
2018-12-16T12:47:02.150Z,93044.39
2018-12-16T12:49:29.578Z,93039.00
2018-12-16T12:51:57.000Z,93041.92
2018-12-16T12:54:24.440Z,93034.97
2018-12-16T12:56:51.866Z,93035.95
2018-12-16T12:59:19.293Z,93041.36
2018-12-16T13:01:46.665Z,93029.30
2018-12-16T13:04:14.040Z,93022.16
2018-12-16T13:06:41.455Z,93024.53
2018-12-16T13:09:08.924Z,93024.14
2018-12-16T13:11:36.346Z,93031.50
2018-12-16T13:14:03.844Z,93020.16
2018-12-16T13:16:31.248Z,93022.16
2018-12-16T13:18:58.693Z,93029.31
2018-12-16T13:21:26.122Z,93026.50
2018-12-16T13:23:53.487Z,93033.72
2018-12-16T13:26:22.115Z,93032.39
2018-12-16T13:28:49.548Z,93036.03
2018-12-16T13:31:25.406Z,93027.93
2018-12-16T13:33:52.827Z,93039.70
2018-12-16T13:36:20.301Z,93039.66
2018-12-16T13:38:47.676Z,93049.69
2018-12-16T13:41:15.149Z,93043.52
2018-12-16T13:43:42.586Z,93045.70
2018-12-16T13:46:10.028Z,93050.14
2018-12-16T13:48:37.405Z,93057.87
2018-12-16T13:51:04.845Z,93054.52
2018-12-16T13:53:32.231Z,93058.80
2018-12-16T13:56:11.450Z,93055.70
2018-12-16T13:58:46.849Z,93063.63
2018-12-16T14:01:14.535Z,93056.84
2018-12-16T14:03:41.994Z,93062.61
2018-12-16T14:06:09.411Z,93062.75
2018-12-16T14:08:36.849Z,93067.19
2018-12-16T14:11:04.270Z,93065.22
2018-12-16T14:13:31.665Z,93065.58
2018-12-16T14:15:59.102Z,93068.33
2018-12-16T14:18:26.534Z,93073.75
2018-12-16T14:20:53.935Z,93078.23
2018-12-16T14:23:21.379Z,93086.88
2018-12-16T14:25:48.765Z,93084.25
2018-12-16T14:28:18.245Z,93084.06
2018-12-16T14:30:45.668Z,93077.84
2018-12-16T14:33:13.119Z,93083.23
2018-12-16T14:35:40.514Z,93086.47
2018-12-16T14:38:08.091Z,93091.01
2018-12-16T14:40:35.480Z,93095.18
2018-12-16T14:43:02.911Z,93100.67
2018-12-16T14:45:30.329Z,93100.83
2018-12-16T14:47:57.729Z,93092.02
2018-12-16T14:50:25.154Z,93091.24
2018-12-16T14:52:52.583Z,93092.34
2018-12-16T14:55:20.005Z,93100.12
2018-12-16T14:58:09.089Z,93106.97
2018-12-16T15:00:36.491Z,93101.59
2018-12-16T15:03:04.030Z,93098.25
2018-12-16T15:05:35.251Z,93106.23
2018-12-16T15:08:02.738Z,93104.73
2018-12-16T15:10:30.155Z,93106.55
2018-12-16T15:12:57.574Z,93111.76
2018-12-16T15:15:25.134Z,93116.49
2018-12-16T15:17:56.669Z,93119.91
2018-12-16T15:20:24.095Z,93129.39
2018-12-16T15:22:55.538Z,93130.66
2018-12-16T15:25:23.063Z,93123.20
2018-12-16T15:27:50.511Z,93135.52
2018-12-16T15:30:18.024Z,93133.08
2018-12-16T15:32:45.455Z,93130.06
2018-12-16T15:35:12.900Z,93130.41
2018-12-16T15:37:44.064Z,93128.31
2018-12-16T15:40:14.899Z,93131.77
2018-12-16T15:42:45.729Z,93137.45
2018-12-16T15:45:14.194Z,93133.47
2018-12-16T15:47:41.744Z,93134.53
2018-12-16T15:50:12.564Z,93132.92
2018-12-16T15:52:43.567Z,93143.11
2018-12-16T15:55:11.087Z,93149.00
2018-12-16T15:57:39.591Z,93146.36
2018-12-16T16:00:07.459Z,93145.13
2018-12-16T16:02:34.829Z,93152.80
2018-12-16T16:05:02.324Z,93146.16
2018-12-16T16:07:29.728Z,93155.16
2018-12-16T16:09:57.142Z,93154.03
2018-12-16T16:12:28.245Z,93159.48
2018-12-16T16:14:59.335Z,93165.50
2018-12-16T16:17:30.271Z,93173.09
2018-12-16T16:20:01.460Z,93168.16
2018-12-16T16:22:30.560Z,93171.98
2018-12-16T16:25:01.433Z,93172.36
2018-12-16T16:27:34.849Z,93177.16
2018-12-16T16:30:02.551Z,93173.89
2018-12-16T16:32:33.575Z,93180.98
2018-12-16T16:35:07.259Z,93175.16
2018-12-16T16:37:37.031Z,93182.27
2018-12-16T16:40:07.866Z,93182.33
2018-12-16T16:42:35.262Z,93181.13
2018-12-16T16:45:02.815Z,93179.48
2018-12-16T16:47:32.465Z,93193.83
2018-12-16T16:49:59.882Z,93187.97
2018-12-16T16:52:30.864Z,93186.77
2018-12-16T16:54:58.381Z,93190.17
2018-12-16T16:57:33.727Z,93192.72
2018-12-16T17:00:05.741Z,93190.95
2018-12-16T17:02:36.504Z,93189.74
2018-12-16T17:05:04.331Z,93195.17
2018-12-16T17:07:31.727Z,93197.75
2018-12-16T17:10:02.396Z,93196.11
2018-12-16T17:12:33.371Z,93200.30
2018-12-16T17:15:04.895Z,93196.48
2018-12-16T17:17:35.371Z,93203.55
2018-12-16T17:20:05.093Z,93198.86
2018-12-16T17:22:36.375Z,93203.53
2018-12-16T17:25:07.428Z,93202.83
2018-12-16T17:27:38.395Z,93200.77
2018-12-16T17:30:08.344Z,93196.63
2018-12-16T17:32:39.308Z,93200.87
2018-12-16T17:35:10.174Z,93202.55
2018-12-16T17:40:37.125Z,93211.39
2018-12-16T17:43:04.550Z,93218.06
2018-12-16T17:45:35.799Z,93223.54
2018-12-16T17:48:09.196Z,93218.13
2018-12-16T17:50:36.571Z,93218.15
2018-12-16T17:53:03.936Z,93223.20
2018-12-16T17:55:31.400Z,93221.12
2018-12-16T17:58:01.887Z,93222.81
2018-12-16T18:00:29.335Z,93221.95
2018-12-16T18:03:02.417Z,93225.32
2018-12-16T18:05:30.812Z,93229.89
2018-12-16T18:08:04.267Z,93223.19
2018-12-16T18:10:34.817Z,93215.66
2018-12-16T18:13:02.260Z,93221.14
2018-12-16T18:15:29.740Z,93220.31
2018-12-16T18:17:59.184Z,93224.47
2018-12-16T18:20:30.577Z,93227.81
2018-12-16T18:23:01.585Z,93231.58
2018-12-16T18:25:32.542Z,93240.42
2018-12-16T18:28:02.047Z,93238.28
2018-12-16T18:30:29.391Z,93242.49
2018-12-16T18:33:01.044Z,93245.88
2018-12-16T18:35:28.465Z,93248.77
2018-12-16T18:37:56.032Z,93250.03
2018-12-16T18:40:26.971Z,93253.88
2018-12-16T18:42:54.406Z,93254.66
2018-12-16T18:45:21.910Z,93253.34
2018-12-16T18:47:55.025Z,93261.34
2018-12-16T18:50:26.304Z,93260.55
2018-12-16T18:52:59.358Z,93256.33
2018-12-16T18:55:32.515Z,93255.53
2018-12-16T18:58:05.610Z,93247.92
2018-12-16T19:00:36.051Z,93250.45
2018-12-16T19:03:03.545Z,93256.77
2018-12-16T19:05:31.031Z,93260.58
2018-12-16T19:08:06.065Z,93260.98
2018-12-16T19:10:33.530Z,93262.22
2018-12-16T19:13:04.682Z,93266.41
2018-12-16T19:15:35.530Z,93268.94
2018-12-16T19:18:02.964Z,93269.37
2018-12-16T19:20:32.352Z,93273.56
2018-12-16T19:22:59.784Z,93273.16
2018-12-16T19:25:30.349Z,93274.48
2018-12-16T19:28:01.236Z,93277.86
2018-12-16T19:30:34.851Z,93275.34
2018-12-16T19:33:02.278Z,93271.11
2018-12-16T19:35:35.429Z,93271.08
2018-12-16T19:38:06.003Z,93274.08
2018-12-16T19:40:33.484Z,93273.68
2018-12-16T19:43:00.864Z,93275.81
2018-12-16T19:45:28.962Z,93275.70
2018-12-16T19:48:00.712Z,93277.39
2018-12-16T19:50:28.190Z,93276.95
2018-12-16T19:52:55.645Z,93272.32
2018-12-16T19:55:26.508Z,93266.38
2018-12-16T19:57:59.832Z,93266.83
2018-12-16T20:00:27.290Z,93261.80
2018-12-16T20:02:58.427Z,93262.28
2018-12-16T20:05:33.623Z,93252.96
2018-12-16T20:08:04.387Z,93258.02
2018-12-16T20:10:31.867Z,93264.40
2018-12-16T20:12:59.560Z,93260.67
2018-12-16T20:15:30.956Z,93269.06
2018-12-16T20:18:01.830Z,93264.78
2018-12-16T20:20:29.244Z,93260.15
2018-12-16T20:22:56.666Z,93257.25
2018-12-16T20:25:25.577Z,93266.52
2018-12-16T20:27:56.279Z,93258.08
2018-12-16T20:30:27.262Z,93256.82
2018-12-16T20:32:58.272Z,93258.03
2018-12-16T20:35:31.691Z,93251.72
2018-12-16T20:38:05.575Z,93255.05
2018-12-16T20:40:33.211Z,93261.81
2018-12-16T20:43:04.275Z,93256.80
2018-12-16T20:45:33.497Z,93253.94
2018-12-16T20:48:06.387Z,93250.17
2018-12-16T20:50:38.815Z,93256.05
2018-12-16T20:53:09.500Z,93252.25
2018-12-16T20:55:42.856Z,93259.44
2018-12-16T20:58:10.319Z,93255.72
2018-12-16T21:00:41.203Z,93257.88
2018-12-16T21:03:14.759Z,93257.05
2018-12-16T21:05:47.815Z,93257.05
2018-12-16T21:08:20.862Z,93252.41
2018-12-16T21:10:52.270Z,93254.52
2018-12-16T21:13:28.755Z,93262.16
2018-12-16T21:16:07.246Z,93267.64
2018-12-16T21:18:36.567Z,93255.02
2018-12-16T21:21:04.075Z,93259.23
2018-12-16T21:23:35.138Z,93257.53
2018-12-16T21:26:04.306Z,93261.68
2018-12-16T21:28:35.282Z,93263.01
2018-12-16T21:31:06.146Z,93258.00
2018-12-16T21:33:33.670Z,93261.34
2018-12-16T21:36:05.060Z,93263.05
2018-12-16T21:38:32.670Z,93260.53
2018-12-16T21:41:03.926Z,93263.87
2018-12-16T21:43:31.669Z,93262.16
2018-12-16T21:46:00.956Z,93265.55
2018-12-16T21:48:34.406Z,93271.86
2018-12-16T21:51:01.776Z,93264.71
2018-12-16T21:53:29.166Z,93267.66
2018-12-16T21:55:57.625Z,93273.95
2018-12-16T21:58:28.709Z,93273.49
2018-12-16T22:00:56.096Z,93276.44
2018-12-16T22:03:23.486Z,93278.54
2018-12-16T22:05:54.359Z,93276.02
2018-12-16T22:08:25.562Z,93284.45
2018-12-16T22:10:53.082Z,93289.93
2018-12-16T22:13:20.527Z,93291.59
2018-12-16T22:17:12.681Z,93297.04
2018-12-16T22:19:46.417Z,93301.59
2018-12-16T22:22:14.130Z,93297.80
2018-12-16T22:24:44.865Z,93308.32
2018-12-16T22:27:15.861Z,93302.45
2018-12-16T22:29:49.146Z,93303.31
2018-12-16T22:32:16.598Z,93302.08
2018-12-16T22:34:46.298Z,93300.83
2018-12-16T22:37:18.220Z,93302.11
2018-12-16T22:39:45.605Z,93307.99
2018-12-16T22:42:12.993Z,93307.92
2018-12-16T22:44:43.636Z,93307.91
2018-12-16T22:47:14.646Z,93304.14
2018-12-16T22:49:42.119Z,93307.55
2018-12-16T22:52:12.726Z,93304.98
2018-12-16T22:54:40.767Z,93305.46
2018-12-16T22:58:32.764Z,93305.04
2018-12-16T23:01:06.436Z,93312.68
2018-12-16T23:03:34.139Z,93310.16
2018-12-16T23:06:02.197Z,93316.47
2018-12-16T23:08:30.054Z,93304.28
2018-12-16T23:10:58.015Z,93304.70
2018-12-16T23:13:25.586Z,93306.88
2018-12-16T23:15:53.187Z,93303.09
2018-12-16T23:18:20.571Z,93300.19
2018-12-16T23:20:48.681Z,93294.29
2018-12-16T23:23:17.460Z,93298.09
2018-12-16T23:25:47.277Z,93293.91
2018-12-16T23:28:15.026Z,93290.57
2018-12-16T23:30:46.846Z,93288.05
2018-12-16T23:33:14.251Z,93288.03
2018-12-16T23:35:45.739Z,93288.47
2018-12-16T23:38:13.451Z,93284.68
2018-12-16T23:40:44.385Z,93287.61
2018-12-16T23:43:12.156Z,93291.39
2018-12-16T23:45:41.236Z,93289.27
2018-12-16T23:48:12.205Z,93287.20
2018-12-16T23:50:41.185Z,93289.72
2018-12-16T23:53:12.384Z,93291.38
2018-12-16T23:55:43.291Z,93292.64
2018-12-16T23:58:12.344Z,93286.35
